Terminal Aerodrome Forecast
Issued by NWS Chicago, IL

Home | Current Version | Previous Version | Graphics & Text | Print | Product List | Glossary On
Versions: 1 2 3 4 5 6 7 8 9 10 11 12 13 14 15 16 17 18 19 20 21 22 23 24 25 26 27 28 29 30 31
000
FTUS43 KLOT 161131
TAFRFD
TAF
KRFD 161131Z 1612/1712 10005KT P6SM OVC050
     FM161600 05004KT P6SM BKN035
     FM162000 34004KT P6SM SCT035 SCT200
     FM170100 VRB03KT P6SM SCT250=

USA.gov is the U.S. government's official web portal to all federal, state and local government web resources and services.